Time;durP1;ratioP1;P1;durP2;ratioP2;P2;SDS_P1;SDS_P2;PMS_P1;PMS_P2;Temp;Humidity;BMP_temperature;BMP_pressure;BME280_temperature;BME280_humidity;BME280_pressure;Samples;Min_cycle;Max_cycle;Signal;HPM_P1;HPM_P2
2023/08/28 00:02:12;;;;;;;6.93;1.50;;;;;;;;;;5063219;28;20063;-75
2023/08/28 00:04:37;;;;;;;4.68;1.42;;;;;;;;;;5068887;28;20027;-76
2023/08/28 00:07:03;;;;;;;6.65;1.60;;;;;;;;;;5071030;28;20343;-75
2023/08/28 00:09:28;;;;;;;5.53;1.35;;;;;;;;;;5079209;28;20317;-75
2023/08/28 00:11:54;;;;;;;4.97;1.80;;;;;;;;;;5052537;28;20232;-76
2023/08/28 00:14:20;;;;;;;4.57;1.50;;;;;;;;;;5075267;28;20259;-80
2023/08/28 00:16:46;;;;;;;4.00;1.60;;;;;;;;;;5081897;28;20328;-75
2023/08/28 00:19:11;;;;;;;6.35;1.63;;;;;;;;;;5072599;28;20036;-76
2023/08/28 00:21:36;;;;;;;5.25;1.60;;;;;;;;;;5081467;28;20036;-75
2023/08/28 00:24:02;;;;;;;3.45;1.40;;;;;;;;;;5071668;28;20142;-77
2023/08/28 00:26:27;;;;;;;4.70;1.50;;;;;;;;;;5052084;28;20024;-75
2023/08/28 00:28:53;;;;;;;8.43;1.73;;;;;;;;;;5074158;28;20033;-75
2023/08/28 00:31:18;;;;;;;3.92;1.40;;;;;;;;;;5071812;28;20037;-75
2023/08/28 00:33:43;;;;;;;5.95;1.70;;;;;;;;;;5052510;28;20033;-78
2023/08/28 00:36:09;;;;;;;5.22;1.52;;;;;;;;;;5071765;28;20028;-75
2023/08/28 00:38:34;;;;;;;5.57;1.50;;;;;;;;;;5070993;28;20366;-79
2023/08/28 00:40:59;;;;;;;6.90;1.70;;;;;;;;;;5072535;28;20024;-76
2023/08/28 00:43:25;;;;;;;5.50;1.48;;;;;;;;;;5067218;28;20032;-75
2023/08/28 00:45:50;;;;;;;7.13;1.65;;;;;;;;;;5081324;28;20024;-75
2023/08/28 00:48:19;;;;;;;6.32;1.90;;;;;;;;;;5078387;28;20052;-75
2023/08/28 00:50:45;;;;;;;4.47;1.50;;;;;;;;;;5064361;28;20017;-75
2023/08/28 00:53:11;;;;;;;6.00;1.67;;;;;;;;;;5043921;28;20028;-75
2023/08/28 00:55:37;;;;;;;5.53;2.10;;;;;;;;;;5071835;28;20089;-75
2023/08/28 00:58:02;;;;;;;5.38;1.48;;;;;;;;;;5075548;28;20078;-75
2023/08/28 01:00:28;;;;;;;7.18;1.60;;;;;;;;;;5073689;28;20024;-75
2023/08/28 01:02:53;;;;;;;5.65;1.50;;;;;;;;;;5072452;28;20033;-75
2023/08/28 01:05:29;;;;;;;4.85;1.23;;;;;;;;;;5074416;28;20043;-75
2023/08/28 01:08:02;;;;;;;4.78;2.00;;;;;;;;;;5079659;28;20028;-75
2023/08/28 01:10:34;;;;;;;3.83;1.67;;;;;;;;;;5079122;28;20024;-75
2023/08/28 01:13:06;;;;;;;4.53;1.40;;;;;;;;;;5055198;28;20078;-75
2023/08/28 01:15:33;;;;;;;3.03;1.30;;;;;;;;;;5080774;28;20032;-75
2023/08/28 01:18:01;;;;;;;4.70;1.50;;;;;;;;;;5080344;28;20021;-75
2023/08/28 01:20:29;;;;;;;8.05;1.83;;;;;;;;;;5060552;28;20128;-76
2023/08/28 01:23:07;;;;;;;5.88;1.48;;;;;;;;;;5079424;28;20082;-76
2023/08/28 01:25:33;;;;;;;4.60;1.40;;;;;;;;;;5062464;28;20222;-75
2023/08/28 01:27:59;;;;;;;7.50;1.60;;;;;;;;;;5071248;28;20421;-76
2023/08/28 01:30:25;;;;;;;6.25;1.60;;;;;;;;;;5067029;28;20082;-75
2023/08/28 01:32:51;;;;;;;7.13;1.60;;;;;;;;;;5056597;28;20029;-75
2023/08/28 01:35:25;;;;;;;4.00;1.35;;;;;;;;;;5059857;28;20036;-75
2023/08/28 01:38:20;;;;;;;5.05;1.50;;;;;;;;;;5074190;28;20058;-75
2023/08/28 01:40:58;;;;;;;5.47;1.42;;;;;;;;;;5032671;28;20029;-75
2023/08/28 01:43:27;;;;;;;6.47;1.42;;;;;;;;;;5077576;28;20036;-76
2023/08/28 01:45:53;;;;;;;7.53;1.70;;;;;;;;;;5074486;28;20284;-76
2023/08/28 01:48:18;;;;;;;5.45;2.10;;;;;;;;;;5073238;28;20036;-75
2023/08/28 01:50:44;;;;;;;6.25;1.77;;;;;;;;;;5047292;28;20098;-75
2023/08/28 01:53:10;;;;;;;5.47;1.70;;;;;;;;;;5065819;28;20305;-79
2023/08/28 01:55:45;;;;;;;6.35;2.00;;;;;;;;;;5079560;28;20308;-76
2023/08/28 01:58:11;;;;;;;4.80;1.60;;;;;;;;;;5071863;28;20028;-76
2023/08/28 02:00:37;;;;;;;4.65;1.40;;;;;;;;;;5066730;28;20075;-79
2023/08/28 02:03:02;;;;;;;3.72;1.80;;;;;;;;;;5061504;28;20029;-76
2023/08/28 02:05:27;;;;;;;5.78;1.75;;;;;;;;;;5060275;28;20036;-80
2023/08/28 02:07:53;;;;;;;5.03;1.60;;;;;;;;;;5049860;28;20382;-76
2023/08/28 02:10:18;;;;;;;4.13;1.50;;;;;;;;;;5037980;28;20037;-77
2023/08/28 02:12:43;;;;;;;4.50;1.60;;;;;;;;;;5059715;28;20040;-78
2023/08/28 02:15:09;;;;;;;4.25;1.40;;;;;;;;;;5062303;28;20084;-77
2023/08/28 02:17:34;;;;;;;3.20;1.35;;;;;;;;;;5072371;28;20216;-77
2023/08/28 02:20:00;;;;;;;4.55;1.58;;;;;;;;;;5060228;28;20360;-76
2023/08/28 02:22:25;;;;;;;6.40;1.65;;;;;;;;;;5075233;28;20036;-76
2023/08/28 02:24:50;;;;;;;5.00;1.52;;;;;;;;;;5059929;28;20044;-76
2023/08/28 02:27:16;;;;;;;5.43;1.73;;;;;;;;;;5057547;28;20139;-77
2023/08/28 02:29:41;;;;;;;5.82;1.40;;;;;;;;;;5060872;28;20163;-76
2023/08/28 02:32:06;;;;;;;3.10;1.30;;;;;;;;;;5079298;28;20040;-76
2023/08/28 02:34:32;;;;;;;5.25;1.45;;;;;;;;;;5066756;28;20039;-78
2023/08/28 02:36:57;;;;;;;5.22;1.70;;;;;;;;;;5056208;28;20039;-76
2023/08/28 02:39:22;;;;;;;3.97;1.50;;;;;;;;;;5064236;28;20047;-76
2023/08/28 02:41:48;;;;;;;5.22;2.00;;;;;;;;;;5062562;28;20111;-76
2023/08/28 02:44:13;;;;;;;7.07;1.80;;;;;;;;;;5058037;28;20028;-75
2023/08/28 02:46:38;;;;;;;3.65;1.60;;;;;;;;;;5065560;28;20024;-76
2023/08/28 02:49:04;;;;;;;7.93;1.65;;;;;;;;;;5058016;28;20029;-76
2023/08/28 02:51:29;;;;;;;5.45;1.80;;;;;;;;;;5040030;28;20060;-76
2023/08/28 02:53:54;;;;;;;5.20;1.63;;;;;;;;;;5057664;28;20029;-76
2023/08/28 02:56:20;;;;;;;6.70;1.52;;;;;;;;;;5040429;28;20025;-76
2023/08/28 02:58:45;;;;;;;5.47;1.50;;;;;;;;;;5058142;28;20036;-76
2023/08/28 03:01:11;;;;;;;6.20;1.58;;;;;;;;;;5058314;28;20048;-75
2023/08/28 03:03:36;;;;;;;3.40;1.45;;;;;;;;;;5057962;28;20329;-76
2023/08/28 03:06:01;;;;;;;6.65;1.70;;;;;;;;;;5057694;28;20154;-76
2023/08/28 03:08:29;;;;;;;6.85;1.67;;;;;;;;;;5057681;28;20029;-77
2023/08/28 03:10:54;;;;;;;5.60;1.50;;;;;;;;;;5057584;28;20041;-75
2023/08/28 03:13:19;;;;;;;4.32;1.60;;;;;;;;;;5057791;28;20079;-76
2023/08/28 03:15:45;;;;;;;4.70;1.52;;;;;;;;;;5057503;28;20029;-76
2023/08/28 03:18:10;;;;;;;3.92;1.50;;;;;;;;;;5053830;28;20104;-76
2023/08/28 03:20:36;;;;;;;5.05;1.50;;;;;;;;;;5057312;28;20146;-76
2023/08/28 03:23:02;;;;;;;6.47;1.85;;;;;;;;;;5056367;28;20040;-76
2023/08/28 03:25:28;;;;;;;3.72;1.52;;;;;;;;;;5057280;28;20021;-76
2023/08/28 03:27:53;;;;;;;5.78;1.52;;;;;;;;;;5059506;28;20344;-79
2023/08/28 03:30:18;;;;;;;3.63;1.50;;;;;;;;;;5061391;28;20032;-76
2023/08/28 03:32:44;;;;;;;4.85;1.50;;;;;;;;;;5071566;28;20032;-76
2023/08/28 03:35:09;;;;;;;5.93;1.50;;;;;;;;;;5074840;28;20028;-75
2023/08/28 03:37:35;;;;;;;3.88;1.35;;;;;;;;;;5061391;28;20032;-75
2023/08/28 03:40:00;;;;;;;4.45;1.60;;;;;;;;;;5056164;28;20041;-76
2023/08/28 03:42:25;;;;;;;5.72;1.33;;;;;;;;;;5060855;28;20028;-76
2023/08/28 03:44:50;;;;;;;4.88;1.75;;;;;;;;;;5060970;28;20124;-76
2023/08/28 03:47:19;;;;;;;6.22;1.60;;;;;;;;;;5063979;28;20228;-75
2023/08/28 03:49:44;;;;;;;8.82;1.60;;;;;;;;;;5061010;28;20413;-74
2023/08/28 03:52:09;;;;;;;4.82;1.33;;;;;;;;;;5060162;28;20147;-76
2023/08/28 03:54:35;;;;;;;4.07;1.35;;;;;;;;;;5060889;28;20025;-76
2023/08/28 03:57:00;;;;;;;3.65;1.50;;;;;;;;;;5061072;28;20033;-75
2023/08/28 03:59:25;;;;;;;6.57;1.50;;;;;;;;;;5055339;28;20044;-74
2023/08/28 04:01:51;;;;;;;4.07;1.40;;;;;;;;;;5060922;28;20024;-75
2023/08/28 04:04:16;;;;;;;3.10;1.40;;;;;;;;;;5060798;28;20029;-75
2023/08/28 04:06:42;;;;;;;8.15;1.65;;;;;;;;;;5060867;28;20024;-75
2023/08/28 04:09:07;;;;;;;4.03;1.40;;;;;;;;;;5060222;28;20225;-75
2023/08/28 04:11:32;;;;;;;4.75;1.67;;;;;;;;;;5060674;28;20029;-77
2023/08/28 04:13:58;;;;;;;4.07;1.50;;;;;;;;;;5060497;28;20025;-77
2023/08/28 04:16:23;;;;;;;7.20;1.48;;;;;;;;;;5064805;28;20021;-76
2023/08/28 04:18:49;;;;;;;5.70;1.40;;;;;;;;;;5055992;28;20033;-75
2023/08/28 04:21:14;;;;;;;5.10;1.50;;;;;;;;;;5053358;28;20035;-75
2023/08/28 04:23:40;;;;;;;5.93;1.55;;;;;;;;;;5059936;28;20012;-77
2023/08/28 04:26:05;;;;;;;5.15;1.60;;;;;;;;;;5060556;28;20100;-77
2023/08/28 04:28:31;;;;;;;6.15;2.15;;;;;;;;;;5060229;28;20052;-76
2023/08/28 04:30:57;;;;;;;3.42;1.50;;;;;;;;;;5042181;28;20041;-76
2023/08/28 04:33:23;;;;;;;3.85;1.48;;;;;;;;;;5041460;28;20025;-76
2023/08/28 04:35:49;;;;;;;3.88;1.52;;;;;;;;;;5059535;28;20024;-76
2023/08/28 04:38:14;;;;;;;4.03;1.60;;;;;;;;;;5058866;28;20221;-75
2023/08/28 04:40:39;;;;;;;3.60;1.45;;;;;;;;;;5060399;28;20017;-78
2023/08/28 04:43:05;;;;;;;5.15;1.50;;;;;;;;;;5061165;28;20079;-78
2023/08/28 04:45:30;;;;;;;5.05;1.50;;;;;;;;;;5068907;28;20029;-77
2023/08/28 04:47:55;;;;;;;6.47;1.60;;;;;;;;;;5081134;28;20036;-78
2023/08/28 04:50:21;;;;;;;5.10;1.60;;;;;;;;;;5062952;28;20048;-77
2023/08/28 04:52:46;;;;;;;4.38;1.45;;;;;;;;;;5066287;28;20040;-76
2023/08/28 04:55:11;;;;;;;6.28;1.80;;;;;;;;;;5075830;28;20063;-75
2023/08/28 04:57:37;;;;;;;3.75;1.50;;;;;;;;;;5067565;28;20553;-76
2023/08/28 05:00:03;;;;;;;5.18;1.67;;;;;;;;;;5065153;28;20083;-76
2023/08/28 05:02:28;;;;;;;5.18;1.60;;;;;;;;;;5065030;28;20103;-75
2023/08/28 05:04:53;;;;;;;3.25;1.40;;;;;;;;;;5062885;28;20040;-76
2023/08/28 05:07:19;;;;;;;6.30;1.63;;;;;;;;;;5065930;28;20028;-75
2023/08/28 05:09:44;;;;;;;5.80;1.70;;;;;;;;;;5070198;28;20035;-76
2023/08/28 05:12:09;;;;;;;6.18;1.70;;;;;;;;;;5070810;28;20036;-76
2023/08/28 05:14:35;;;;;;;3.63;1.45;;;;;;;;;;5057947;28;20036;-76
2023/08/28 05:17:00;;;;;;;5.13;1.88;;;;;;;;;;5071336;28;20032;-77
2023/08/28 05:19:25;;;;;;;4.55;1.77;;;;;;;;;;5064709;28;20032;-75
2023/08/28 05:21:51;;;;;;;5.03;1.60;;;;;;;;;;5070577;28;20378;-80
2023/08/28 05:24:16;;;;;;;5.05;1.45;;;;;;;;;;5062699;28;20321;-75
2023/08/28 05:26:42;;;;;;;6.32;1.75;;;;;;;;;;5052617;28;20434;-80
2023/08/28 05:29:07;;;;;;;3.83;1.40;;;;;;;;;;5056040;28;20741;-78
2023/08/28 05:31:32;;;;;;;5.50;1.50;;;;;;;;;;5051530;28;20495;-76
2023/08/28 05:33:58;;;;;;;4.68;1.42;;;;;;;;;;5059336;28;20521;-77
2023/08/28 05:36:23;;;;;;;4.20;1.70;;;;;;;;;;5055287;28;20037;-76
2023/08/28 05:38:48;;;;;;;8.75;2.20;;;;;;;;;;5051222;28;20025;-75
2023/08/28 05:41:14;;;;;;;3.60;1.58;;;;;;;;;;5054883;28;20040;-79
2023/08/28 05:43:39;;;;;;;6.63;1.95;;;;;;;;;;5054387;28;20060;-80
2023/08/28 05:46:04;;;;;;;4.22;1.48;;;;;;;;;;5058182;28;20476;-76
2023/08/28 05:48:29;;;;;;;6.63;1.55;;;;;;;;;;5058582;28;20067;-76
2023/08/28 05:50:55;;;;;;;5.65;1.60;;;;;;;;;;5037006;28;20469;-76
2023/08/28 05:53:20;;;;;;;7.15;1.70;;;;;;;;;;5054426;28;20400;-76
2023/08/28 05:55:45;;;;;;;5.32;1.63;;;;;;;;;;5057323;28;20048;-75
2023/08/28 05:58:11;;;;;;;3.45;1.40;;;;;;;;;;5057441;28;20021;-77
2023/08/28 06:00:36;;;;;;;6.05;1.80;;;;;;;;;;5052318;28;20116;-75
2023/08/28 06:03:02;;;;;;;6.68;1.70;;;;;;;;;;5054328;28;20107;-75
2023/08/28 06:05:27;;;;;;;3.85;1.60;;;;;;;;;;5053469;28;20520;-75
2023/08/28 06:07:52;;;;;;;4.90;1.60;;;;;;;;;;5058130;28;20040;-77
2023/08/28 06:10:19;;;;;;;5.93;1.70;;;;;;;;;;5054893;28;20078;-75
2023/08/28 06:12:46;;;;;;;5.85;1.63;;;;;;;;;;5031032;28;20090;-76
2023/08/28 06:15:14;;;;;;;4.25;1.70;;;;;;;;;;5049097;28;20104;-75
2023/08/28 06:17:40;;;;;;;5.80;1.67;;;;;;;;;;5053735;28;20056;-76
2023/08/28 06:20:09;;;;;;;4.90;1.75;;;;;;;;;;5052964;28;20413;-75
2023/08/28 06:22:35;;;;;;;5.63;1.70;;;;;;;;;;5054616;28;20025;-75
2023/08/28 06:25:01;;;;;;;5.28;1.70;;;;;;;;;;5035077;28;20443;-75
2023/08/28 06:27:26;;;;;;;5.30;1.77;;;;;;;;;;5057476;28;20048;-75
2023/08/28 06:29:52;;;;;;;6.78;1.50;;;;;;;;;;5055470;28;20029;-76
2023/08/28 06:32:17;;;;;;;6.70;1.92;;;;;;;;;;5053856;28;20028;-77
2023/08/28 06:34:42;;;;;;;6.20;1.63;;;;;;;;;;5048340;28;20070;-76
2023/08/28 06:37:08;;;;;;;4.75;1.55;;;;;;;;;;5052615;28;20036;-76
2023/08/28 06:39:33;;;;;;;6.30;2.03;;;;;;;;;;5052125;28;20131;-76
2023/08/28 06:41:58;;;;;;;3.72;1.63;;;;;;;;;;5057107;28;20061;-75
2023/08/28 06:44:24;;;;;;;7.53;1.75;;;;;;;;;;5054379;28;20037;-76
2023/08/28 06:46:49;;;;;;;5.70;1.83;;;;;;;;;;5049092;28;20025;-75
2023/08/28 06:49:14;;;;;;;3.58;1.70;;;;;;;;;;5056189;28;20460;-78
2023/08/28 06:51:40;;;;;;;8.05;1.60;;;;;;;;;;5057323;28;20612;-75
2023/08/28 06:54:06;;;;;;;7.25;1.60;;;;;;;;;;5051504;28;20445;-76
2023/08/28 06:56:32;;;;;;;8.20;1.70;;;;;;;;;;5053909;28;20037;-77
2023/08/28 06:58:57;;;;;;;4.47;1.55;;;;;;;;;;5052925;28;20032;-76
2023/08/28 07:01:22;;;;;;;4.95;1.63;;;;;;;;;;5059307;28;20431;-76
2023/08/28 07:03:48;;;;;;;4.95;1.60;;;;;;;;;;5058506;28;20180;-75
2023/08/28 07:06:13;;;;;;;3.97;1.40;;;;;;;;;;5044405;28;20064;-75
2023/08/28 07:08:39;;;;;;;4.38;1.60;;;;;;;;;;5052101;28;20110;-75
2023/08/28 07:11:04;;;;;;;5.97;1.77;;;;;;;;;;5060585;28;20037;-77
2023/08/28 07:13:30;;;;;;;5.43;1.65;;;;;;;;;;5055912;28;20059;-76
2023/08/28 07:15:56;;;;;;;5.97;1.50;;;;;;;;;;5057699;28;20044;-75
2023/08/28 07:18:21;;;;;;;5.35;1.60;;;;;;;;;;5052372;28;20534;-75
2023/08/28 07:20:46;;;;;;;5.13;1.70;;;;;;;;;;5062784;28;20021;-75
2023/08/28 07:23:12;;;;;;;5.75;1.75;;;;;;;;;;5059794;28;20519;-79
2023/08/28 07:25:38;;;;;;;5.95;1.92;;;;;;;;;;5055966;28;20024;-75
2023/08/28 07:28:05;;;;;;;4.70;1.50;;;;;;;;;;5056116;28;20124;-77
2023/08/28 07:30:31;;;;;;;5.75;1.80;;;;;;;;;;5058141;28;20037;-76
2023/08/28 07:32:56;;;;;;;6.00;2.08;;;;;;;;;;5057165;28;20595;-76
2023/08/28 07:35:21;;;;;;;5.35;1.70;;;;;;;;;;5068761;28;20154;-75
2023/08/28 07:37:47;;;;;;;3.67;1.63;;;;;;;;;;5051760;28;20032;-75
2023/08/28 07:40:12;;;;;;;6.18;1.90;;;;;;;;;;5058969;28;20099;-76
2023/08/28 07:42:37;;;;;;;5.93;2.25;;;;;;;;;;5054526;28;20029;-76
2023/08/28 07:45:04;;;;;;;7.28;1.85;;;;;;;;;;5056476;28;20420;-76
2023/08/28 07:47:29;;;;;;;4.38;1.80;;;;;;;;;;5055243;28;20063;-79
2023/08/28 07:49:55;;;;;;;5.68;1.70;;;;;;;;;;5059057;28;20491;-76
2023/08/28 07:52:20;;;;;;;4.80;1.55;;;;;;;;;;5055904;28;20033;-77
2023/08/28 07:54:47;;;;;;;4.88;1.52;;;;;;;;;;5053379;28;20079;-76
2023/08/28 07:57:12;;;;;;;4.45;1.60;;;;;;;;;;5058898;28;20389;-78
2023/08/28 07:59:37;;;;;;;3.92;1.58;;;;;;;;;;5057476;28;20028;-76
2023/08/28 08:02:04;;;;;;;4.50;1.60;;;;;;;;;;5053991;28;20029;-76
2023/08/28 08:04:31;;;;;;;4.43;1.70;;;;;;;;;;5058795;28;20608;-78
2023/08/28 08:06:56;;;;;;;4.43;1.70;;;;;;;;;;5057770;28;20033;-76
2023/08/28 08:09:22;;;;;;;7.40;2.03;;;;;;;;;;5058865;28;20079;-79
2023/08/28 08:11:48;;;;;;;4.72;2.00;;;;;;;;;;5056828;28;20081;-76
2023/08/28 08:14:13;;;;;;;3.83;1.60;;;;;;;;;;5052856;28;20393;-76
2023/08/28 08:16:38;;;;;;;4.88;1.70;;;;;;;;;;5057176;28;20103;-76
2023/08/28 08:19:04;;;;;;;4.13;1.60;;;;;;;;;;5037941;28;20040;-76
2023/08/28 08:21:30;;;;;;;6.07;1.92;;;;;;;;;;5059060;28;20025;-75
2023/08/28 08:23:55;;;;;;;7.03;1.80;;;;;;;;;;5061307;28;20036;-76
2023/08/28 08:26:21;;;;;;;6.57;2.00;;;;;;;;;;5059451;28;20024;-76
2023/08/28 08:28:46;;;;;;;7.22;2.13;;;;;;;;;;5058709;28;20040;-78
2023/08/28 08:31:11;;;;;;;5.28;1.73;;;;;;;;;;5055099;28;20086;-79
2023/08/28 08:33:38;;;;;;;4.05;1.88;;;;;;;;;;5057756;28;20033;-75
2023/08/28 08:36:04;;;;;;;8.25;2.03;;;;;;;;;;5055697;28;20037;-76
2023/08/28 08:38:29;;;;;;;6.22;1.80;;;;;;;;;;5060940;28;20205;-78
2023/08/28 08:40:58;;;;;;;4.88;1.83;;;;;;;;;;5056672;28;20124;-76
2023/08/28 08:43:25;;;;;;;3.78;1.70;;;;;;;;;;5055732;28;20016;-76
2023/08/28 08:46:04;;;;;;;7.65;1.60;;;;;;;;;;5051113;28;20102;-76
2023/08/28 08:48:32;;;;;;;6.10;2.00;;;;;;;;;;5057592;28;20036;-76
2023/08/28 08:51:05;;;;;;;4.22;1.80;;;;;;;;;;5052623;28;20157;-77
2023/08/28 08:53:43;;;;;;;4.75;2.00;;;;;;;;;;5045306;28;20036;-77
2023/08/28 08:56:12;;;;;;;7.25;1.90;;;;;;;;;;5055802;28;20082;-76
2023/08/28 08:58:38;;;;;;;7.57;1.88;;;;;;;;;;5058313;28;20028;-76
2023/08/28 09:01:05;;;;;;;11.68;2.15;;;;;;;;;;5057123;28;20029;-76
2023/08/28 09:03:31;;;;;;;5.07;1.80;;;;;;;;;;5055118;28;20028;-75
2023/08/28 09:05:59;;;;;;;4.38;1.77;;;;;;;;;;5053572;28;20040;-77
2023/08/28 09:08:25;;;;;;;5.97;2.17;;;;;;;;;;5057791;28;20025;-76
2023/08/28 09:10:50;;;;;;;7.00;2.20;;;;;;;;;;5052493;28;20111;-75
2023/08/28 09:13:16;;;;;;;4.20;2.00;;;;;;;;;;5052004;28;20120;-75
2023/08/28 09:15:41;;;;;;;6.38;1.90;;;;;;;;;;5051557;28;20380;-75
2023/08/28 09:18:07;;;;;;;6.03;1.88;;;;;;;;;;5042255;28;20120;-77
2023/08/28 09:20:32;;;;;;;4.13;1.83;;;;;;;;;;5051972;28;20029;-75
2023/08/28 09:22:58;;;;;;;8.00;2.17;;;;;;;;;;5054853;28;20020;-77
2023/08/28 09:25:24;;;;;;;6.20;2.05;;;;;;;;;;5058688;28;20150;-76
2023/08/28 09:27:52;;;;;;;5.55;2.15;;;;;;;;;;5051195;28;20514;-78
2023/08/28 09:30:38;;;;;;;7.05;2.20;;;;;;;;;;5056055;28;20032;-79
2023/08/28 09:33:07;;;;;;;4.72;2.10;;;;;;;;;;5072184;28;20052;-79
2023/08/28 09:35:41;;;;;;;4.80;2.22;;;;;;;;;;5050189;28;20100;-77
2023/08/28 09:38:07;;;;;;;8.90;2.50;;;;;;;;;;5051987;28;20207;-81
2023/08/28 09:40:40;;;;;;;7.38;2.35;;;;;;;;;;5057584;28;20150;-77
2023/08/28 09:43:14;;;;;;;5.00;1.92;;;;;;;;;;5055381;28;20120;-75
2023/08/28 09:45:40;;;;;;;7.32;2.55;;;;;;;;;;5050173;28;20110;-75
2023/08/28 09:48:07;;;;;;;4.75;1.90;;;;;;;;;;5057063;28;20623;-80
2023/08/28 09:50:37;;;;;;;6.50;2.45;;;;;;;;;;5057980;28;20094;-78
2023/08/28 09:53:10;;;;;;;5.90;2.28;;;;;;;;;;5051065;28;20061;-76
2023/08/28 09:55:52;;;;;;;5.65;2.08;;;;;;;;;;5049732;28;20128;-76
2023/08/28 09:58:19;;;;;;;6.90;2.20;;;;;;;;;;5058766;28;20029;-78
2023/08/28 10:00:45;;;;;;;5.97;1.95;;;;;;;;;;5051213;28;20560;-77
2023/08/28 10:03:12;;;;;;;6.93;2.10;;;;;;;;;;5053990;28;20044;-76
2023/08/28 10:05:40;;;;;;;4.55;2.20;;;;;;;;;;5057110;28;20033;-76
2023/08/28 10:08:07;;;;;;;4.75;2.00;;;;;;;;;;5058402;28;20032;-80
2023/08/28 10:10:37;;;;;;;4.57;1.92;;;;;;;;;;5057991;28;20045;-77
2023/08/28 10:13:04;;;;;;;4.53;1.90;;;;;;;;;;5053532;28;20031;-79
2023/08/28 10:15:33;;;;;;;3.88;1.85;;;;;;;;;;5051516;28;20057;-77
2023/08/28 10:18:03;;;;;;;5.38;2.03;;;;;;;;;;5053064;28;20021;-74
2023/08/28 10:20:30;;;;;;;4.60;1.83;;;;;;;;;;5055081;28;20040;-80
2023/08/28 10:22:57;;;;;;;4.05;2.15;;;;;;;;;;5056575;28;20085;-75
2023/08/28 10:25:24;;;;;;;4.10;2.00;;;;;;;;;;5052829;28;20029;-75
2023/08/28 10:27:50;;;;;;;3.38;1.80;;;;;;;;;;5050992;28;20037;-78
2023/08/28 10:30:16;;;;;;;4.38;2.00;;;;;;;;;;5048598;28;20473;-77
2023/08/28 10:32:42;;;;;;;7.78;2.00;;;;;;;;;;5038253;28;20100;-79
2023/08/28 10:35:10;;;;;;;4.55;1.67;;;;;;;;;;5052753;28;20028;-75
2023/08/28 10:37:38;;;;;;;4.38;1.55;;;;;;;;;;5049733;28;20033;-75
2023/08/28 10:40:04;;;;;;;5.07;1.65;;;;;;;;;;5055268;28;20033;-79
2023/08/28 10:42:31;;;;;;;4.85;1.90;;;;;;;;;;5055968;28;20021;-74
2023/08/28 10:44:57;;;;;;;5.75;1.60;;;;;;;;;;5049489;28;20111;-77
2023/08/28 10:47:22;;;;;;;2.97;1.50;;;;;;;;;;5053559;28;20032;-75
2023/08/28 10:49:48;;;;;;;6.13;1.60;;;;;;;;;;5051595;28;20032;-75
2023/08/28 10:52:13;;;;;;;5.43;1.60;;;;;;;;;;5056850;28;20036;-75
2023/08/28 10:54:42;;;;;;;4.97;1.52;;;;;;;;;;5049606;28;20029;-77
2023/08/28 10:57:21;;;;;;;3.20;1.45;;;;;;;;;;5049842;28;20047;-74
2023/08/28 10:59:48;;;;;;;3.97;1.60;;;;;;;;;;5055507;28;20039;-75
2023/08/28 11:02:13;;;;;;;3.17;1.60;;;;;;;;;;5050466;28;20539;-78
2023/08/28 11:04:40;;;;;;;4.38;1.50;;;;;;;;;;5054324;28;20033;-74
2023/08/28 11:07:27;;;;;;;4.32;1.60;;;;;;;;;;5048192;28;20464;-77
2023/08/28 11:10:17;;;;;;;4.13;1.58;;;;;;;;;;5052757;28;20029;-74
2023/08/28 11:12:53;;;;;;;4.22;1.90;;;;;;;;;;5049149;28;20039;-74
2023/08/28 11:15:29;;;;;;;5.25;2.10;;;;;;;;;;5057031;28;20116;-77
2023/08/28 11:18:24;;;;;;;4.13;2.10;;;;;;;;;;5053208;28;20190;-81
2023/08/28 11:20:53;;;;;;;5.28;2.47;;;;;;;;;;5063546;28;20127;-81
2023/08/28 11:23:39;;;;;;;6.38;2.30;;;;;;;;;;5062416;28;20039;-74
2023/08/28 11:26:29;;;;;;;7.72;2.70;;;;;;;;;;5055944;28;20028;-77
2023/08/28 11:28:54;;;;;;;7.32;2.50;;;;;;;;;;5043318;28;20064;-78
2023/08/28 11:31:19;;;;;;;6.00;2.45;;;;;;;;;;5058172;28;20032;-77
2023/08/28 11:33:49;;;;;;;6.78;2.70;;;;;;;;;;5040052;28;20025;-77
2023/08/28 11:36:17;;;;;;;6.35;2.55;;;;;;;;;;5063181;28;20021;-79
2023/08/28 11:38:43;;;;;;;7.70;3.58;;;;;;;;;;5063888;28;20108;-80
2023/08/28 11:41:10;;;;;;;8.50;3.58;;;;;;;;;;5058940;28;20029;-74
2023/08/28 11:43:45;;;;;;;7.60;3.08;;;;;;;;;;5044649;28;20209;-79
2023/08/28 11:46:11;;;;;;;6.63;3.50;;;;;;;;;;5058733;28;20036;-80
2023/08/28 11:48:38;;;;;;;4.57;2.20;;;;;;;;;;5066342;28;20086;-81
2023/08/28 11:51:06;;;;;;;5.38;2.40;;;;;;;;;;5058192;28;20052;-75
2023/08/28 11:53:40;;;;;;;3.38;1.90;;;;;;;;;;5064764;28;20021;-75
2023/08/28 11:56:07;;;;;;;4.25;1.98;;;;;;;;;;5067923;28;20031;-79
2023/08/28 11:58:38;;;;;;;7.50;2.20;;;;;;;;;;5068968;28;20224;-75
2023/08/28 12:01:08;;;;;;;5.72;2.13;;;;;;;;;;5063802;28;20033;-77
2023/08/28 12:03:36;;;;;;;5.53;2.50;;;;;;;;;;5070645;28;20074;-75
2023/08/28 12:06:09;;;;;;;5.32;2.20;;;;;;;;;;5060867;28;20102;-76
2023/08/28 12:08:39;;;;;;;3.90;2.00;;;;;;;;;;5060219;28;20305;-75
2023/08/28 12:11:07;;;;;;;2.83;1.75;;;;;;;;;;5052795;28;20032;-80
2023/08/28 12:13:32;;;;;;;5.75;2.22;;;;;;;;;;5048536;28;20137;-75
2023/08/28 12:16:30;;;;;;;4.65;1.70;;;;;;;;;;5043892;28;20405;-76
2023/08/28 12:18:56;;;;;;;8.00;1.80;;;;;;;;;;5012202;28;20037;-75
2023/08/28 12:21:36;;;;;;;4.95;2.00;;;;;;;;;;5062805;28;20166;-77
2023/08/28 12:24:02;;;;;;;2.90;1.70;;;;;;;;;;5059761;28;20476;-75
2023/08/28 12:26:30;;;;;;;6.97;1.90;;;;;;;;;;5071215;28;20087;-76
2023/08/28 12:28:56;;;;;;;4.60;1.90;;;;;;;;;;5066267;28;20450;-74
2023/08/28 12:31:30;;;;;;;5.28;1.80;;;;;;;;;;5045365;28;20024;-77
2023/08/28 12:33:56;;;;;;;2.92;1.60;;;;;;;;;;5052242;28;20052;-77
2023/08/28 12:36:38;;;;;;;3.38;1.70;;;;;;;;;;5062649;28;20588;-76
2023/08/28 12:39:05;;;;;;;5.10;1.70;;;;;;;;;;5054913;28;20448;-75
2023/08/28 12:41:36;;;;;;;6.57;2.00;;;;;;;;;;5066435;28;20028;-79
2023/08/28 12:44:01;;;;;;;7.40;2.20;;;;;;;;;;5070832;28;20043;-76
2023/08/28 12:46:27;;;;;;;3.50;2.10;;;;;;;;;;5070575;28;20028;-76
2023/08/28 12:48:53;;;;;;;3.75;1.90;;;;;;;;;;5062179;28;20106;-78
2023/08/28 12:51:20;;;;;;;4.40;1.90;;;;;;;;;;5059337;28;20068;-76
2023/08/28 12:53:46;;;;;;;5.10;1.80;;;;;;;;;;5071911;28;20046;-76
2023/08/28 12:56:12;;;;;;;4.32;1.80;;;;;;;;;;5068599;28;20107;-76
2023/08/28 12:58:37;;;;;;;3.75;1.70;;;;;;;;;;5065251;28;20021;-75
2023/08/28 13:01:04;;;;;;;6.78;1.80;;;;;;;;;;5068318;28;20020;-76
2023/08/28 13:03:29;;;;;;;5.18;1.80;;;;;;;;;;5056805;28;20040;-76
2023/08/28 13:05:55;;;;;;;6.13;1.77;;;;;;;;;;5052692;28;20028;-75
2023/08/28 13:08:23;;;;;;;4.35;1.60;;;;;;;;;;5069990;28;20040;-76
2023/08/28 13:10:49;;;;;;;3.05;1.70;;;;;;;;;;5046534;28;20053;-76
2023/08/28 13:13:14;;;;;;;4.68;1.75;;;;;;;;;;5061041;28;20044;-76
2023/08/28 13:15:39;;;;;;;5.53;1.92;;;;;;;;;;5067625;28;20040;-76
2023/08/28 13:18:05;;;;;;;5.82;2.20;;;;;;;;;;5063401;28;20037;-77
2023/08/28 13:20:30;;;;;;;4.22;1.92;;;;;;;;;;5061810;28;20047;-79
2023/08/28 13:22:55;;;;;;;3.33;1.60;;;;;;;;;;5058107;28;20029;-76
2023/08/28 13:25:22;;;;;;;3.45;1.70;;;;;;;;;;5053992;28;20029;-76
2023/08/28 13:27:47;;;;;;;5.07;1.63;;;;;;;;;;5067220;28;20068;-78
2023/08/28 13:30:13;;;;;;;4.82;1.90;;;;;;;;;;5056228;28;20409;-76
2023/08/28 13:32:39;;;;;;;3.70;1.67;;;;;;;;;;5054046;28;20032;-76
2023/08/28 13:35:04;;;;;;;4.00;1.60;;;;;;;;;;5057514;28;20033;-75
2023/08/28 13:37:29;;;;;;;4.38;2.15;;;;;;;;;;5059927;28;20159;-78
2023/08/28 13:39:55;;;;;;;4.40;1.73;;;;;;;;;;5047270;28;20031;-77
2023/08/28 13:42:20;;;;;;;3.35;1.67;;;;;;;;;;5051445;28;20032;-78
2023/08/28 13:44:45;;;;;;;4.53;1.90;;;;;;;;;;5056585;28;20024;-75
2023/08/28 13:47:11;;;;;;;8.80;1.90;;;;;;;;;;5062802;28;20100;-76
2023/08/28 13:49:36;;;;;;;7.95;1.90;;;;;;;;;;5059409;28;20037;-75
2023/08/28 13:52:01;;;;;;;5.22;1.80;;;;;;;;;;5064200;28;20253;-77
2023/08/28 13:54:27;;;;;;;5.63;1.90;;;;;;;;;;5063935;28;20029;-76
2023/08/28 13:56:52;;;;;;;5.03;1.65;;;;;;;;;;5058851;28;20029;-77
2023/08/28 13:59:17;;;;;;;4.03;1.80;;;;;;;;;;5055568;28;20035;-77
2023/08/28 14:01:43;;;;;;;4.90;1.75;;;;;;;;;;5053012;28;20480;-78
2023/08/28 14:04:09;;;;;;;3.13;1.77;;;;;;;;;;5053571;28;20154;-78
2023/08/28 14:06:34;;;;;;;4.22;1.80;;;;;;;;;;5055979;28;20029;-78
2023/08/28 14:09:00;;;;;;;4.45;1.85;;;;;;;;;;5055425;28;20122;-75
2023/08/28 14:11:25;;;;;;;3.72;1.92;;;;;;;;;;5053644;28;20488;-77
2023/08/28 14:13:51;;;;;;;4.68;2.10;;;;;;;;;;5049372;28;20127;-76
2023/08/28 14:16:19;;;;;;;6.22;2.13;;;;;;;;;;5059704;28;20614;-77
2023/08/28 14:18:45;;;;;;;4.47;2.00;;;;;;;;;;5056488;28;20409;-77
2023/08/28 14:21:10;;;;;;;4.57;1.88;;;;;;;;;;5059628;28;20496;-77
2023/08/28 14:23:36;;;;;;;3.38;1.83;;;;;;;;;;5051186;28;20389;-76
2023/08/28 14:26:05;;;;;;;5.28;2.00;;;;;;;;;;5065975;28;20037;-76
2023/08/28 14:28:31;;;;;;;4.47;1.98;;;;;;;;;;5050738;28;20044;-75
2023/08/28 14:30:57;;;;;;;5.63;2.15;;;;;;;;;;5061750;28;20044;-75
2023/08/28 14:33:23;;;;;;;5.40;2.20;;;;;;;;;;5061879;28;20028;-75
2023/08/28 14:35:49;;;;;;;5.68;2.20;;;;;;;;;;5060332;28;20029;-75
2023/08/28 14:38:14;;;;;;;6.53;2.40;;;;;;;;;;5060086;28;20365;-76
2023/08/28 14:40:40;;;;;;;6.68;2.42;;;;;;;;;;5061742;28;20039;-76
2023/08/28 14:43:06;;;;;;;5.22;2.60;;;;;;;;;;5056088;28;20229;-77